Time;durP1;ratioP1;P1;durP2;ratioP2;P2;SDS_P1;SDS_P2;PMS_P1;PMS_P2;Temp;Humidity;BMP_temperature;BMP_pressure;BME280_temperature;BME280_humidity;BME280_pressure;Samples;Min_cycle;Max_cycle;Signal;HPM_P1;HPM_P2
2022/01/29 00:01:35;;;;;;;0.10;0.10;;;;;;;1.55;84.82;98576.27;1776043;80;21495;-61
2022/01/29 00:04:01;;;;;;;1.47;0.10;;;;;;;1.54;84.87;98578.05;1780082;80;21100;-63
2022/01/29 00:06:28;;;;;;;0.10;0.10;;;;;;;1.53;84.90;98584.30;1778371;80;21529;-63
2022/01/29 00:08:56;;;;;;;0.10;0.00;;;;;;;1.53;84.81;98589.59;1777712;80;21077;-63
2022/01/29 00:11:28;;;;;;;0.10;0.10;;;;;;;1.51;84.73;98583.00;1776707;80;21534;-63
2022/01/29 00:13:52;;;;;;;0.73;0.10;;;;;;;1.53;84.71;98586.08;1774697;80;21120;-63
2022/01/29 00:16:18;;;;;;;0.10;0.10;;;;;;;1.50;84.73;98579.94;1777990;80;21033;-64
2022/01/29 00:18:45;;;;;;;0.10;0.10;;;;;;;1.51;84.82;98594.06;1776851;80;21044;-64
2022/01/29 00:21:13;;;;;;;0.07;0.07;;;;;;;1.53;84.78;98598.01;1779139;80;21017;-64
2022/01/29 00:23:39;;;;;;;0.20;0.10;;;;;;;1.53;84.73;98599.33;1775439;79;21443;-63
2022/01/29 00:26:06;;;;;;;0.10;0.10;;;;;;;1.51;84.71;98597.59;1773650;80;21509;-62
2022/01/29 00:28:34;;;;;;;0.20;0.10;;;;;;;1.49;84.69;98610.02;1778087;80;20930;-64
2022/01/29 00:31:03;;;;;;;1.30;0.10;;;;;;;1.47;84.69;98608.32;1776765;80;21082;-63
2022/01/29 00:33:29;;;;;;;0.23;0.10;;;;;;;1.41;84.60;98605.86;1777465;80;20910;-62
2022/01/29 00:35:55;;;;;;;0.17;0.10;;;;;;;1.39;84.66;98605.03;1781513;80;20969;-61
2022/01/29 00:38:21;;;;;;;0.10;0.10;;;;;;;1.36;84.73;98615.75;1779843;80;21780;-63
2022/01/29 00:40:48;;;;;;;0.00;0.00;;;;;;;1.36;84.80;98612.61;1776840;80;20918;-63
2022/01/29 00:43:17;;;;;;;0.10;0.10;;;;;;;1.38;84.86;98613.44;1776932;80;21522;-64
2022/01/29 00:45:43;;;;;;;0.73;0.03;;;;;;;1.40;84.91;98613.40;1774974;80;21613;-63
2022/01/29 00:48:09;;;;;;;0.10;0.10;;;;;;;1.40;84.90;98612.95;1779065;80;20953;-63
2022/01/29 00:50:36;;;;;;;0.13;0.10;;;;;;;1.40;84.82;98615.59;1777697;80;21352;-63
2022/01/29 00:53:02;;;;;;;0.20;0.10;;;;;;;1.40;84.80;98624.00;1779183;80;20934;-62
2022/01/29 00:55:29;;;;;;;0.10;0.10;;;;;;;1.35;84.78;98626.80;1769784;80;20924;-63
2022/01/29 00:57:55;;;;;;;0.20;0.10;;;;;;;1.32;84.80;98625.56;1770191;80;20946;-63
2022/01/29 01:00:21;;;;;;;0.17;0.10;;;;;;;1.32;84.90;98623.36;1770553;80;20950;-63
2022/01/29 01:02:49;;;;;;;0.10;0.00;;;;;;;1.32;84.98;98628.20;1769026;80;21088;-63
2022/01/29 01:05:15;;;;;;;0.20;0.10;;;;;;;1.33;85.05;98631.73;1770752;80;20954;-63
2022/01/29 01:07:42;;;;;;;0.30;0.10;;;;;;;1.34;85.08;98635.67;1770400;80;21280;-63
2022/01/29 01:10:09;;;;;;;0.30;0.10;;;;;;;1.37;85.13;98632.91;1770397;80;21471;-62
2022/01/29 01:12:36;;;;;;;0.20;0.10;;;;;;;1.36;85.09;98640.45;1767342;80;21569;-61
2022/01/29 01:15:07;;;;;;;0.20;0.10;;;;;;;1.35;85.02;98628.59;1766484;80;21666;-63
2022/01/29 01:17:33;;;;;;;0.20;0.10;;;;;;;1.32;85.00;98631.31;1769272;80;21429;-61
2022/01/29 01:20:00;;;;;;;0.90;0.83;;;;;;;1.31;85.01;98631.77;1771158;80;21334;-63
2022/01/29 01:22:26;;;;;;;0.10;0.10;;;;;;;1.30;85.04;98637.11;1767681;80;21350;-62
2022/01/29 01:24:52;;;;;;;0.20;0.10;;;;;;;1.28;85.04;98641.12;1770359;80;20949;-64
2022/01/29 01:27:19;;;;;;;0.30;0.10;;;;;;;1.28;85.12;98639.80;1769759;80;21145;-61
2022/01/29 01:29:47;;;;;;;0.20;0.10;;;;;;;1.29;85.10;98646.84;1770313;80;21456;-62
2022/01/29 01:32:13;;;;;;;0.20;0.10;;;;;;;1.28;85.17;98649.08;1768742;80;20879;-63
2022/01/29 01:34:51;;;;;;;0.67;0.10;;;;;;;1.31;85.23;98659.61;1771195;80;21080;-64
2022/01/29 01:37:29;;;;;;;0.20;0.10;;;;;;;1.32;85.18;98655.17;1769353;80;21487;-65
2022/01/29 01:39:43;;;;;;;0.30;0.10;;;;;;;1.29;85.08;98669.83;1761861;80;21152;-63
2022/01/29 01:42:09;;;;;;;0.40;0.10;;;;;;;1.26;85.03;98668.16;1766132;80;21044;-63
2022/01/29 01:44:40;;;;;;;0.57;0.10;;;;;;;1.25;85.08;98671.72;1766242;80;21035;-63
2022/01/29 01:47:06;;;;;;;0.20;0.10;;;;;;;1.25;85.13;98677.02;1764310;80;21061;-63
2022/01/29 01:49:33;;;;;;;0.10;0.00;;;;;;;1.28;85.22;98682.67;1764512;80;21610;-61
2022/01/29 01:52:00;;;;;;;1.07;0.00;;;;;;;1.31;85.27;98682.59;1764118;80;21110;-62
2022/01/29 01:54:26;;;;;;;0.10;0.00;;;;;;;1.32;85.23;98685.66;1769068;80;21077;-62
2022/01/29 01:56:52;;;;;;;0.10;0.00;;;;;;;1.33;85.21;98689.61;1771518;80;21383;-63
2022/01/29 01:59:19;;;;;;;0.10;0.00;;;;;;;1.31;85.08;98690.09;1775712;80;21111;-62
2022/01/29 02:01:45;;;;;;;0.10;0.00;;;;;;;1.26;85.01;98692.02;1773756;80;21116;-63
2022/01/29 02:04:12;;;;;;;0.00;0.00;;;;;;;1.22;85.07;98700.95;1771796;80;22224;-63
2022/01/29 02:06:38;;;;;;;0.03;0.00;;;;;;;1.22;85.07;98704.93;1770357;80;21968;-63
2022/01/29 02:09:04;;;;;;;0.10;0.00;;;;;;;1.21;85.10;98709.81;1743474;80;21434;-62
2022/01/29 02:11:31;;;;;;;0.10;0.00;;;;;;;1.22;85.18;98696.10;1774451;80;22190;-62
2022/01/29 02:13:58;;;;;;;0.30;0.10;;;;;;;1.25;85.17;98707.50;1771577;80;21044;-65
2022/01/29 02:16:27;;;;;;;0.20;0.00;;;;;;;1.24;85.18;98708.87;1774429;80;21674;-64
2022/01/29 02:18:52;;;;;;;0.50;0.10;;;;;;;1.21;85.12;98711.14;1772596;80;21077;-62
2022/01/29 02:21:19;;;;;;;0.10;0.00;;;;;;;1.19;85.05;98716.09;1772770;80;21081;-64
2022/01/29 02:23:46;;;;;;;0.10;0.00;;;;;;;1.17;85.05;98716.58;1772469;80;21100;-62
2022/01/29 02:26:12;;;;;;;0.03;0.00;;;;;;;1.15;85.11;98723.23;1771321;80;21496;-63
2022/01/29 02:28:39;;;;;;;0.20;0.00;;;;;;;1.16;85.11;98726.31;1774402;80;21152;-63
2022/01/29 02:31:05;;;;;;;0.10;0.00;;;;;;;1.17;85.20;98724.08;1773274;80;21585;-64
2022/01/29 02:33:35;;;;;;;0.20;0.00;;;;;;;1.18;85.24;98736.42;1774474;80;21386;-61
2022/01/29 02:36:02;;;;;;;0.20;0.10;;;;;;;1.18;85.28;98736.42;1775168;80;20847;-63
2022/01/29 02:38:29;;;;;;;0.00;0.00;;;;;;;1.17;85.26;98737.33;1773508;80;21127;-62
2022/01/29 02:41:00;;;;;;;0.10;0.00;;;;;;;1.16;85.20;98740.02;1773013;80;21108;-63
2022/01/29 02:43:33;;;;;;;0.10;0.00;;;;;;;1.15;85.13;98749.74;1746297;80;21044;-64
2022/01/29 02:47:15;;;;;;;;;;;;;;;1.12;85.13;98758.64;1778081;80;20870;-64
2022/01/29 02:48:36;;;;;;;0.13;0.00;;;;;;;1.13;85.16;98763.48;1734216;80;20181;-63
2022/01/29 02:51:02;;;;;;;0.10;0.00;;;;;;;1.12;85.15;98761.74;1770690;80;21063;-62
2022/01/29 02:53:29;;;;;;;0.10;0.00;;;;;;;1.10;85.14;98764.46;1772554;80;21109;-62
2022/01/29 02:55:55;;;;;;;0.10;0.00;;;;;;;1.11;85.19;98766.63;1771268;80;21488;-61
2022/01/29 02:58:21;;;;;;;0.07;0.00;;;;;;;1.09;85.03;98773.77;1768733;80;21612;-62
2022/01/29 03:00:48;;;;;;;0.10;0.10;;;;;;;1.04;85.02;98776.52;1766681;80;21088;-60
2022/01/29 03:03:14;;;;;;;0.10;0.00;;;;;;;1.02;85.05;98781.47;1768116;80;21042;-63
2022/01/29 03:05:42;;;;;;;0.10;0.00;;;;;;;1.02;85.08;98786.28;1764817;80;21339;-61
2022/01/29 03:08:09;;;;;;;1.70;0.10;;;;;;;1.02;85.16;98789.41;1767522;80;21136;-61
2022/01/29 03:10:35;;;;;;;0.00;0.00;;;;;;;1.03;85.16;98786.70;1765333;80;21349;-67
2022/01/29 03:13:02;;;;;;;0.03;0.00;;;;;;;1.03;85.23;98789.80;1770276;80;21076;-65
2022/01/29 03:15:29;;;;;;;0.10;0.00;;;;;;;1.02;85.28;98788.09;1765376;80;21310;-63
2022/01/29 03:17:55;;;;;;;0.20;0.00;;;;;;;1.02;85.27;98800.86;1769350;80;21076;-63
2022/01/29 03:20:22;;;;;;;0.00;0.00;;;;;;;1.02;85.15;98808.80;1769320;80;21041;-65
2022/01/29 03:22:48;;;;;;;0.10;0.07;;;;;;;1.01;85.12;98808.42;1703653;82;21117;-64
2022/01/29 03:25:16;;;;;;;0.00;0.00;;;;;;;1.01;85.14;98815.50;1763013;80;21599;-61
2022/01/29 03:27:43;;;;;;;0.20;0.00;;;;;;;1.01;85.19;98817.69;1764179;80;21459;-63
2022/01/29 03:30:10;;;;;;;0.00;0.00;;;;;;;1.05;85.30;98819.80;1769327;80;21314;-64
2022/01/29 03:32:36;;;;;;;0.00;0.00;;;;;;;1.10;85.39;98819.25;1769196;80;20950;-63
2022/01/29 03:35:03;;;;;;;0.57;0.10;;;;;;;1.13;85.31;98823.12;1768774;80;20910;-62
2022/01/29 03:37:30;;;;;;;0.20;0.10;;;;;;;1.13;85.07;98824.45;1770549;80;20934;-60
2022/01/29 03:40:00;;;;;;;0.10;0.00;;;;;;;1.09;84.83;98831.62;1770065;80;20946;-60
2022/01/29 03:42:26;;;;;;;0.10;0.00;;;;;;;1.06;84.82;98834.34;1771503;80;21115;-60
2022/01/29 03:44:52;;;;;;;0.20;0.10;;;;;;;1.05;84.81;98835.24;1771290;80;21358;-64
2022/01/29 03:47:18;;;;;;;0.10;0.00;;;;;;;1.04;84.77;98837.92;1768686;80;21767;-60
2022/01/29 03:49:44;;;;;;;0.10;0.03;;;;;;;1.05;84.83;98839.22;1768360;80;20942;-63
2022/01/29 03:52:11;;;;;;;0.10;0.03;;;;;;;1.09;84.85;98837.38;1769729;80;21148;-62
2022/01/29 03:54:38;;;;;;;0.20;0.10;;;;;;;1.10;84.75;98843.97;1770804;80;21119;-60
2022/01/29 03:57:05;;;;;;;0.10;0.00;;;;;;;1.11;84.55;98854.09;1772714;80;21278;-61
2022/01/29 03:59:32;;;;;;;0.20;0.00;;;;;;;1.09;84.41;98854.60;1771325;80;21017;-63
2022/01/29 04:01:58;;;;;;;0.10;0.00;;;;;;;1.04;84.19;98854.70;1771136;80;21080;-62
2022/01/29 04:04:24;;;;;;;0.20;0.00;;;;;;;1.02;84.12;98859.64;1773349;80;21046;-62
2022/01/29 04:06:51;;;;;;;0.00;0.00;;;;;;;1.01;84.12;98871.14;1775664;80;21120;-63
2022/01/29 04:09:19;;;;;;;0.17;0.10;;;;;;;1.01;84.07;98874.67;1774157;80;21479;-64
2022/01/29 04:11:45;;;;;;;0.00;0.00;;;;;;;1.03;84.00;98879.45;1774826;80;21081;-63
2022/01/29 04:14:17;;;;;;;0.00;0.00;;;;;;;1.08;84.00;98884.66;1777116;80;20965;-62
2022/01/29 04:16:44;;;;;;;0.17;0.10;;;;;;;1.10;83.89;98889.48;1776729;80;21064;-61
2022/01/29 04:19:11;;;;;;;0.10;0.00;;;;;;;1.09;83.74;98894.36;1777375;80;21409;-64
2022/01/29 04:21:38;;;;;;;0.10;0.00;;;;;;;1.08;83.70;98891.28;1778077;80;20946;-62
2022/01/29 04:24:06;;;;;;;0.17;0.00;;;;;;;1.05;83.59;98892.22;1774234;80;20959;-65
2022/01/29 04:26:34;;;;;;;0.00;0.00;;;;;;;1.05;83.75;98900.62;1773377;80;20994;-61
2022/01/29 04:29:04;;;;;;;0.10;0.00;;;;;;;1.02;83.79;98901.56;1775053;80;21507;-62
2022/01/29 04:31:39;;;;;;;0.10;0.00;;;;;;;1.04;83.88;98905.05;1774542;80;21116;-62
2022/01/29 04:34:00;;;;;;;0.17;0.00;;;;;;;1.07;83.94;98910.29;1772115;80;21121;-63
2022/01/29 04:36:27;;;;;;;0.00;0.00;;;;;;;1.09;83.97;98904.96;1771690;80;21104;-64
2022/01/29 04:38:53;;;;;;;0.10;0.10;;;;;;;1.09;83.94;98916.44;1770881;79;21567;-65
2022/01/29 04:41:21;;;;;;;0.10;0.00;;;;;;;1.05;83.75;98929.77;1773882;80;21535;-60
2022/01/29 04:43:48;;;;;;;0.10;0.00;;;;;;;1.01;83.71;98925.47;1770965;80;21146;-58
2022/01/29 04:46:15;;;;;;;0.07;0.00;;;;;;;0.99;83.66;98925.95;1775085;80;21049;-60
2022/01/29 04:48:42;;;;;;;0.10;0.00;;;;;;;0.98;83.72;98927.73;1774354;80;21085;-63
2022/01/29 04:51:08;;;;;;;0.10;0.00;;;;;;;1.00;83.65;98931.22;1773605;80;21327;-64
2022/01/29 04:53:35;;;;;;;0.10;0.00;;;;;;;1.01;83.48;98922.37;1711233;82;21511;-61
2022/01/29 04:56:02;;;;;;;0.10;0.10;;;;;;;1.01;83.17;98939.59;1700016;83;22322;-62
2022/01/29 04:58:29;;;;;;;0.20;0.10;;;;;;;0.98;83.13;98935.67;1694879;82;21053;-62
2022/01/29 05:00:55;;;;;;;0.20;0.10;;;;;;;0.97;83.12;98945.86;1691690;83;21455;-61
2022/01/29 05:03:22;;;;;;;0.10;0.07;;;;;;;0.97;83.14;98954.25;1693436;83;21124;-61
2022/01/29 05:05:48;;;;;;;0.00;0.00;;;;;;;0.95;83.20;98959.59;1692632;83;21061;-62
2022/01/29 05:08:16;;;;;;;0.10;0.03;;;;;;;0.96;83.27;98954.70;1691771;83;21151;-60
2022/01/29 05:10:43;;;;;;;0.00;0.00;;;;;;;0.98;83.34;98961.30;1691936;83;21599;-64
2022/01/29 05:13:12;;;;;;;0.10;0.10;;;;;;;1.00;83.42;98958.17;1692497;83;21135;-61
2022/01/29 05:29:14;;;;;;;0.37;0.08;;;;;;;0.93;83.61;98979.09;1692465;83;21689;-63
2022/01/29 05:31:40;;;;;;;0.10;0.00;;;;;;;0.92;83.64;98990.14;1692258;83;21049;-62
2022/01/29 05:34:07;;;;;;;0.20;0.00;;;;;;;0.91;83.54;98991.05;1690159;83;21175;-61
2022/01/29 05:36:33;;;;;;;0.10;0.00;;;;;;;0.87;83.47;98991.12;1692832;83;21068;-67
2022/01/29 05:38:59;;;;;;;0.83;0.00;;;;;;;0.86;83.43;98992.03;1707600;83;21073;-61
2022/01/29 05:41:28;;;;;;;0.13;0.03;;;;;;;0.84;83.39;99000.48;1708015;83;21088;-60
2022/01/29 05:43:55;;;;;;;0.10;0.00;;;;;;;0.83;83.40;98999.61;1706457;83;21697;-64
2022/01/29 05:46:21;;;;;;;0.30;0.10;;;;;;;0.86;83.35;99004.83;1706232;83;21879;-62
2022/01/29 05:48:47;;;;;;;0.10;0.10;;;;;;;0.88;83.33;99007.45;1705395;83;21559;-62
2022/01/29 05:51:14;;;;;;;1.13;0.10;;;;;;;0.87;83.24;99013.65;1690351;83;21089;-61
2022/01/29 05:53:40;;;;;;;0.20;0.10;;;;;;;0.86;83.12;99014.55;1689259;83;21100;-62
2022/01/29 05:56:06;;;;;;;0.20;0.10;;;;;;;0.84;83.05;99035.80;1690128;83;21200;-64
2022/01/29 05:58:34;;;;;;;0.20;0.00;;;;;;;0.84;83.03;99032.28;1699237;83;22244;-61
2022/01/29 06:01:01;;;;;;;0.10;0.00;;;;;;;0.84;83.02;99045.08;1699811;83;21626;-63
2022/01/29 06:03:27;;;;;;;0.87;0.07;;;;;;;0.85;83.09;99048.60;1701545;83;21114;-62
2022/01/29 06:05:53;;;;;;;0.03;0.00;;;;;;;0.87;82.94;99053.39;1699462;83;21084;-61
2022/01/29 06:08:19;;;;;;;0.47;0.47;;;;;;;0.88;82.92;99064.41;1700827;83;21113;-66
2022/01/29 06:10:46;;;;;;;0.07;0.00;;;;;;;0.89;82.87;99062.19;1702529;83;21172;-63
2022/01/29 06:13:14;;;;;;;0.10;0.00;;;;;;;0.90;82.67;99065.27;1699838;83;21057;-62
2022/01/29 06:15:43;;;;;;;0.10;0.00;;;;;;;0.89;82.55;99059.54;1700920;83;21283;-61
2022/01/29 06:18:13;;;;;;;0.20;0.10;;;;;;;0.87;82.43;99073.27;1699363;83;21171;-61
2022/01/29 06:20:40;;;;;;;0.30;0.20;;;;;;;0.85;82.42;99071.96;1697950;83;21057;-63
2022/01/29 06:23:07;;;;;;;0.50;0.20;;;;;;;0.85;82.42;99087.02;1700576;83;21108;-64
2022/01/29 06:25:33;;;;;;;0.37;0.20;;;;;;;0.85;82.38;99075.09;1712597;82;21022;-63
2022/01/29 06:28:00;;;;;;;0.50;0.10;;;;;;;0.84;82.27;99084.81;1707757;83;21641;-63
2022/01/29 06:30:28;;;;;;;0.33;0.10;;;;;;;0.84;82.26;99082.62;1672887;85;21158;-62
2022/01/29 06:32:54;;;;;;;0.43;0.10;;;;;;;0.85;82.19;99084.37;1707639;83;21121;-62
2022/01/29 06:35:20;;;;;;;0.30;0.20;;;;;;;0.83;82.08;99099.41;1706957;83;21142;-61
2022/01/29 06:37:47;;;;;;;0.20;0.10;;;;;;;0.83;82.03;99104.27;1707591;83;21108;-62
2022/01/29 06:40:14;;;;;;;0.20;0.10;;;;;;;0.83;81.93;99100.73;1706573;83;21129;-62
2022/01/29 06:42:41;;;;;;;0.20;0.10;;;;;;;0.85;81.91;99102.43;1684148;84;21069;-63
2022/01/29 06:45:08;;;;;;;0.23;0.10;;;;;;;0.89;81.79;99105.91;1669736;84;21044;-62
2022/01/29 06:47:35;;;;;;;0.27;0.10;;;;;;;0.89;81.72;99105.45;1670413;84;21571;-63
2022/01/29 06:50:01;;;;;;;0.30;0.13;;;;;;;0.93;81.75;99119.53;1706537;83;21080;-64
2022/01/29 06:52:28;;;;;;;0.33;0.20;;;;;;;0.94;81.68;99115.50;1682663;84;21158;-63
2022/01/29 06:54:54;;;;;;;0.47;0.37;;;;;;;0.96;81.69;99124.30;1697907;83;21116;-63
2022/01/29 06:57:20;;;;;;;0.57;0.10;;;;;;;0.98;81.58;99140.18;1695850;83;21087;-64
2022/01/29 06:59:47;;;;;;;0.50;0.10;;;;;;;0.95;81.45;99129.17;1720960;82;21073;-61
2022/01/29 07:02:13;;;;;;;0.50;0.17;;;;;;;0.93;81.50;99128.81;1718358;82;21077;-59
2022/01/29 07:04:40;;;;;;;0.70;0.20;;;;;;;0.92;81.59;99134.56;1739962;82;21025;-63
2022/01/29 07:07:06;;;;;;;0.40;0.20;;;;;;;0.93;81.63;99132.78;1720129;82;22032;-61
2022/01/29 07:09:33;;;;;;;0.20;0.10;;;;;;;0.93;81.70;99135.44;1737583;82;21716;-62
2022/01/29 07:12:08;;;;;;;0.20;0.10;;;;;;;0.94;81.72;99130.52;1720965;82;21104;-63
2022/01/29 07:14:29;;;;;;;0.20;0.20;;;;;;;0.93;81.71;99138.08;1721492;82;20958;-62
2022/01/29 07:16:56;;;;;;;0.30;0.10;;;;;;;0.88;81.70;99138.60;1708891;83;20966;-62
2022/01/29 07:19:22;;;;;;;0.20;0.00;;;;;;;0.87;81.80;99145.67;1739604;82;21244;-62
2022/01/29 07:21:48;;;;;;;0.40;0.10;;;;;;;0.89;81.94;99153.60;1723673;82;20946;-65
2022/01/29 07:24:15;;;;;;;0.37;0.10;;;;;;;0.89;81.84;99152.28;1720403;82;21132;-65
2022/01/29 07:26:41;;;;;;;0.30;0.20;;;;;;;0.88;81.87;99158.03;1740767;82;21101;-65
2022/01/29 07:29:08;;;;;;;0.40;0.10;;;;;;;0.84;81.78;99160.78;1721249;82;21292;-63
2022/01/29 07:31:34;;;;;;;0.30;0.17;;;;;;;0.82;81.82;99165.22;1739854;82;21089;-62
2022/01/29 07:34:00;;;;;;;0.17;0.10;;;;;;;0.81;81.85;99167.00;1723233;82;21081;-62
2022/01/29 07:36:27;;;;;;;0.50;0.10;;;;;;;0.81;81.78;99174.06;1741373;82;21779;-61
2022/01/29 07:38:53;;;;;;;0.40;0.10;;;;;;;0.80;81.80;99189.54;1723021;82;21140;-63
2022/01/29 07:41:19;;;;;;;0.30;0.20;;;;;;;0.79;81.80;99177.19;1738178;82;21038;-63
2022/01/29 07:43:46;;;;;;;0.30;0.10;;;;;;;0.78;81.56;99200.16;1720365;82;21105;-63
2022/01/29 07:46:12;;;;;;;0.27;0.17;;;;;;;0.77;81.52;99196.23;1720411;82;21140;-62
2022/01/29 07:48:39;;;;;;;0.80;0.17;;;;;;;0.76;81.33;99192.71;1721315;81;21140;-61
2022/01/29 07:51:05;;;;;;;0.33;0.10;;;;;;;0.74;81.31;99195.38;1721340;82;21500;-63
2022/01/29 07:53:32;;;;;;;1.37;0.40;;;;;;;0.76;81.21;99201.98;1739103;82;21053;-62
2022/01/29 07:55:59;;;;;;;0.60;0.30;;;;;;;0.79;81.09;99207.66;1736921;82;21081;-63
2022/01/29 07:58:25;;;;;;;1.17;0.20;;;;;;;0.77;80.86;99206.34;1733227;82;21555;-62
2022/01/29 08:00:51;;;;;;;0.50;0.30;;;;;;;0.75;80.70;99210.38;1733717;82;21117;-62
2022/01/29 08:03:17;;;;;;;0.67;0.27;;;;;;;0.75;80.67;99216.13;1705218;83;21141;-64
2022/01/29 08:05:44;;;;;;;1.13;0.10;;;;;;;0.75;80.61;99215.68;1733782;82;21145;-63
2022/01/29 08:08:11;;;;;;;0.20;0.10;;;;;;;0.76;80.22;99216.55;1704031;83;21102;-65
2022/01/29 08:10:37;;;;;;;0.53;0.10;;;;;;;0.73;80.21;99223.22;1707091;83;21121;-64
2022/01/29 08:13:04;;;;;;;0.30;0.10;;;;;;;0.70;80.06;99220.61;1720020;82;22249;-62
2022/01/29 08:15:31;;;;;;;0.37;0.10;;;;;;;0.69;79.81;99230.33;1732234;82;21097;-65
2022/01/29 08:17:57;;;;;;;0.40;0.20;;;;;;;0.66;79.89;99222.91;1699586;83;21093;-62
2022/01/29 08:20:23;;;;;;;0.50;0.20;;;;;;;0.67;79.88;99224.66;1733152;82;20989;-62
2022/01/29 08:22:51;;;;;;;0.30;0.10;;;;;;;0.67;79.76;99224.66;1721420;81;21629;-64
2022/01/29 08:25:17;;;;;;;0.30;0.20;;;;;;;0.67;79.47;99230.83;1734855;82;21638;-63
2022/01/29 08:27:44;;;;;;;0.30;0.20;;;;;;;0.67;79.44;99224.66;1706143;83;21710;-65
2022/01/29 08:30:11;;;;;;;0.80;0.20;;;;;;;0.70;79.46;99230.76;1719392;82;21072;-63
2022/01/29 08:32:42;;;;;;;0.20;0.10;;;;;;;0.73;79.19;99229.84;1705395;83;21053;-62
2022/01/29 08:35:09;;;;;;;0.30;0.20;;;;;;;0.72;78.81;99222.79;1734030;82;21151;-64
2022/01/29 08:37:35;;;;;;;0.30;0.10;;;;;;;0.73;78.76;99236.46;1732956;82;21701;-66
2022/01/29 08:40:05;;;;;;;0.33;0.20;;;;;;;0.72;78.72;99254.13;1733479;82;21085;-64
2022/01/29 08:42:32;;;;;;;0.30;0.10;;;;;;;0.73;78.61;99245.73;1706119;83;21541;-62
2022/01/29 08:45:00;;;;;;;0.40;0.20;;;;;;;0.73;78.48;99247.94;1706390;83;21129;-62
2022/01/29 08:47:27;;;;;;;0.30;0.10;;;;;;;0.77;78.50;99251.88;1722287;82;21627;-60
2022/01/29 08:49:53;;;;;;;0.10;0.00;;;;;;;0.79;78.33;99253.56;1717732;82;22221;-65
2022/01/29 08:52:19;;;;;;;0.23;0.20;;;;;;;0.82;78.20;99257.95;1719763;82;21137;-61
2022/01/29 08:54:46;;;;;;;0.30;0.20;;;;;;;0.84;77.91;99262.33;1730682;82;21384;-62
2022/01/29 08:57:12;;;;;;;0.37;0.20;;;;;;;0.83;77.71;99261.03;1704421;83;21766;-62
2022/01/29 08:59:38;;;;;;;0.77;0.20;;;;;;;0.85;77.67;99271.16;1706858;82;21063;-63
2022/01/29 09:02:05;;;;;;;0.40;0.20;;;;;;;0.84;77.60;99271.61;1704835;83;21848;-63
2022/01/29 09:04:32;;;;;;;0.43;0.20;;;;;;;0.86;77.55;99268.91;1765515;80;21279;-64
2022/01/29 09:06:59;;;;;;;0.30;0.20;;;;;;;0.88;77.41;99279.03;1766004;80;21113;-66
2022/01/29 09:09:26;;;;;;;0.40;0.30;;;;;;;0.89;77.41;99283.44;1764511;80;21132;-64
2022/01/29 09:11:53;;;;;;;0.53;0.20;;;;;;;0.89;77.14;99272.84;1767639;80;21041;-63
2022/01/29 09:14:20;;;;;;;0.70;0.40;;;;;;;0.88;77.12;99270.64;1770287;80;21224;-67
2022/01/29 09:16:48;;;;;;;1.03;0.33;;;;;;;0.88;77.10;99273.28;1769151;80;20962;-63
2022/01/29 09:19:14;;;;;;;0.90;0.33;;;;;;;0.86;77.27;99284.80;1772354;80;21057;-63
2022/01/29 09:21:40;;;;;;;0.40;0.20;;;;;;;0.86;77.26;99280.83;1734903;82;21082;-61
2022/01/29 09:24:07;;;;;;;0.60;0.30;;;;;;;0.86;77.26;99283.03;1704556;83;21069;-61
2022/01/29 09:26:33;;;;;;;0.30;0.20;;;;;;;0.89;77.30;99289.61;1703501;83;21952;-62
2022/01/29 09:29:00;;;;;;;0.60;0.30;;;;;;;0.94;77.32;99288.20;1729480;82;21140;-62
2022/01/29 09:31:26;;;;;;;0.47;0.20;;;;;;;0.96;77.12;99286.41;1703126;83;21113;-63
2022/01/29 09:33:53;;;;;;;0.40;0.20;;;;;;;0.96;76.86;99294.35;1766335;80;21069;-62
2022/01/29 09:36:21;;;;;;;0.50;0.20;;;;;;;0.94;76.87;99297.47;1766487;80;21077;-61
2022/01/29 09:38:48;;;;;;;1.23;0.20;;;;;;;0.92;76.59;99292.23;1768034;79;21639;-65
2022/01/29 09:41:15;;;;;;;1.67;0.30;;;;;;;0.91;76.63;99290.47;1767710;80;21920;-65
2022/01/29 09:43:44;;;;;;;0.40;0.20;;;;;;;0.95;76.57;99297.45;1769044;80;20875;-62
2022/01/29 09:46:10;;;;;;;0.60;0.23;;;;;;;0.96;76.52;99296.55;1765927;80;20899;-62
2022/01/29 09:48:37;;;;;;;0.40;0.20;;;;;;;0.99;76.25;99291.66;1768975;80;20930;-63
2022/01/29 09:51:05;;;;;;;0.27;0.20;;;;;;;0.96;76.06;99294.35;1770490;80;22420;-63
2022/01/29 09:53:31;;;;;;;0.50;0.20;;;;;;;0.97;76.11;99289.48;1769100;80;21775;-61
2022/01/29 09:55:58;;;;;;;0.43;0.20;;;;;;;0.99;76.03;99291.22;1769352;80;21523;-65
2022/01/29 09:58:24;;;;;;;0.47;0.20;;;;;;;1.01;75.91;99302.67;1771938;80;20927;-63
2022/01/29 10:00:50;;;;;;;0.50;0.20;;;;;;;1.03;75.90;99298.64;1772403;80;20883;-65
2022/01/29 10:03:19;;;;;;;0.90;0.30;;;;;;;1.01;75.77;99300.47;1776953;80;21292;-66
2022/01/29 10:05:48;;;;;;;0.30;0.10;;;;;;;0.99;75.51;99316.39;1772542;80;20938;-65
2022/01/29 10:08:15;;;;;;;1.03;0.20;;;;;;;0.93;75.27;99305.91;1774713;80;21400;-64
2022/01/29 10:10:47;;;;;;;0.20;0.10;;;;;;;0.88;75.23;99302.88;1775477;80;20886;-64
2022/01/29 10:13:35;;;;;;;0.30;0.20;;;;;;;0.84;75.28;99313.13;1775341;80;21312;-61
2022/01/29 10:16:10;;;;;;;0.30;0.13;;;;;;;0.82;75.26;99314.47;1776144;80;21672;-66
2022/01/29 10:18:42;;;;;;;0.33;0.20;;;;;;;0.80;75.24;99314.93;1771050;80;21065;-65
2022/01/29 10:21:19;;;;;;;0.47;0.17;;;;;;;0.80;75.28;99316.26;1771395;80;21077;-61
2022/01/29 10:23:45;;;;;;;0.30;0.20;;;;;;;0.82;75.14;99318.89;1771652;79;21487;-60
2022/01/29 10:26:28;;;;;;;0.70;0.20;;;;;;;0.82;74.98;99318.89;1772402;80;21041;-64
2022/01/29 10:28:55;;;;;;;0.50;0.20;;;;;;;0.82;74.99;99317.12;1772603;80;21218;-64
2022/01/29 10:31:22;;;;;;;1.37;0.30;;;;;;;0.83;74.75;99334.77;1775018;80;21508;-61
2022/01/29 10:33:48;;;;;;;0.50;0.27;;;;;;;0.81;74.70;99327.73;1774011;80;21527;-64
2022/01/29 10:36:16;;;;;;;1.57;0.30;;;;;;;0.82;74.40;99336.11;1707582;82;21049;-63
2022/01/29 10:38:55;;;;;;;0.80;0.20;;;;;;;0.78;74.49;99331.74;1705962;82;21114;-63
2022/01/29 10:41:28;;;;;;;0.70;0.27;;;;;;;0.78;74.34;99333.95;1708251;83;21253;-62
2022/01/29 10:44:17;;;;;;;0.50;0.30;;;;;;;0.78;74.27;99341.89;1734670;82;21089;-65
2022/01/29 10:46:48;;;;;;;0.60;0.30;;;;;;;0.79;74.17;99337.47;1732594;81;21499;-65
2022/01/29 10:49:33;;;;;;;0.60;0.30;;;;;;;0.80;74.04;99340.10;1708582;83;21127;-65
2022/01/29 10:52:12;;;;;;;0.50;0.20;;;;;;;0.82;73.88;99343.61;1708127;83;21065;-65
2022/01/29 10:54:41;;;;;;;0.50;0.20;;;;;;;0.82;73.70;99336.11;1737453;82;21177;-65
2022/01/29 10:57:14;;;;;;;0.53;0.27;;;;;;;0.80;73.58;99334.80;1712341;83;20910;-64
2022/01/29 10:59:49;;;;;;;0.40;0.20;;;;;;;0.80;73.65;99331.28;1735190;82;21054;-65
2022/01/29 11:02:16;;;;;;;0.47;0.20;;;;;;;0.79;73.32;99342.77;1710600;83;20995;-62
2022/01/29 11:04:43;;;;;;;0.83;0.30;;;;;;;0.77;73.08;99338.81;1709971;83;21554;-63
2022/01/29 11:07:15;;;;;;;0.60;0.30;;;;;;;0.76;73.09;99349.02;1712065;83;21145;-62
2022/01/29 11:09:43;;;;;;;1.70;0.40;;;;;;;0.75;72.90;99345.94;1709111;83;20930;-64
2022/01/29 11:13:00;;;;;;;0.60;0.30;;;;;;;0.80;72.30;99344.52;1776241;78;26391;-64
2022/01/29 11:15:28;;;;;;;0.83;0.37;;;;;;;0.74;72.52;99347.70;1735629;80;21085;-66
2022/01/29 11:17:55;;;;;;;0.63;0.33;;;;;;;0.75;72.50;99346.81;1738228;80;21803;-64
2022/01/29 11:20:21;;;;;;;2.00;0.30;;;;;;;0.78;72.66;99348.52;1739034;80;21145;-65
2022/01/29 11:22:49;;;;;;;0.60;0.27;;;;;;;0.77;72.33;99352.06;1730999;80;21006;-64
2022/01/29 11:25:23;;;;;;;0.90;0.30;;;;;;;0.74;72.21;99352.13;1722457;82;21124;-65
2022/01/29 11:28:14;;;;;;;3.40;0.50;;;;;;;0.74;72.19;99341.53;1725529;82;20998;-64
2022/01/29 11:30:43;;;;;;;1.20;0.30;;;;;;;0.77;72.47;99349.89;1722145;82;21221;-64
2022/01/29 11:33:09;;;;;;;2.77;0.20;;;;;;;0.80;72.51;99350.70;1727706;82;21448;-63
2022/01/29 11:35:55;;;;;;;0.77;0.30;;;;;;;0.82;72.48;99350.69;1724035;81;21052;-64
2022/01/29 11:38:31;;;;;;;1.13;0.30;;;;;;;0.85;72.35;99363.41;1724951;82;21392;-66
2022/01/29 11:41:02;;;;;;;0.50;0.20;;;;;;;0.86;72.21;99361.20;1726899;82;20883;-64
2022/01/29 11:43:34;;;;;;;0.47;0.20;;;;;;;0.86;72.26;99363.84;1727464;82;21642;-62
2022/01/29 11:46:25;;;;;;;1.03;0.27;;;;;;;0.88;72.11;99367.80;1721981;82;21455;-62
2022/01/29 11:48:51;;;;;;;0.63;0.30;;;;;;;0.90;72.14;99369.98;1721627;82;21077;-63
2022/01/29 11:51:47;;;;;;;0.77;0.30;;;;;;;0.91;71.92;99367.77;1724499;82;21058;-65
2022/01/29 11:54:21;;;;;;;0.83;0.30;;;;;;;0.92;71.75;99377.47;1728197;82;21499;-65
2022/01/29 11:56:47;;;;;;;0.60;0.30;;;;;;;0.96;71.64;99375.18;1718578;81;21530;-63
2022/01/29 11:59:23;;;;;;;1.23;0.40;;;;;;;0.97;71.54;99376.94;1723049;82;21053;-66